sensor_id;sensor_type;location;lat;lon;timestamp;P1;durP1;ratioP1;P2;durP2;ratioP2
29916;SDS011;16786;49.466;11.068;2023-12-20T00:02:18;13.00;;;6.53;;
29916;SDS011;16786;49.466;11.068;2023-12-20T00:04:45;9.48;;;5.25;;
29916;SDS011;16786;49.466;11.068;2023-12-20T00:07:12;10.88;;;5.03;;
29916;SDS011;16786;49.466;11.068;2023-12-20T00:09:39;12.23;;;6.25;;
29916;SDS011;16786;49.466;11.068;2023-12-20T00:12:07;9.57;;;6.32;;
29916;SDS011;16786;49.466;11.068;2023-12-20T00:14:34;10.82;;;5.50;;
29916;SDS011;16786;49.466;11.068;2023-12-20T00:17:02;9.70;;;5.78;;
29916;SDS011;16786;49.466;11.068;2023-12-20T00:19:29;11.07;;;5.47;;
29916;SDS011;16786;49.466;11.068;2023-12-20T00:21:56;10.13;;;5.47;;
29916;SDS011;16786;49.466;11.068;2023-12-20T00:24:23;11.55;;;5.88;;
29916;SDS011;16786;49.466;11.068;2023-12-20T00:26:50;9.48;;;5.65;;
29916;SDS011;16786;49.466;11.068;2023-12-20T00:29:17;10.65;;;5.55;;
29916;SDS011;16786;49.466;11.068;2023-12-20T00:31:44;12.07;;;6.30;;
29916;SDS011;16786;49.466;11.068;2023-12-20T00:34:12;10.05;;;5.97;;
29916;SDS011;16786;49.466;11.068;2023-12-20T00:36:39;9.85;;;5.82;;
29916;SDS011;16786;49.466;11.068;2023-12-20T00:39:06;10.57;;;5.60;;
29916;SDS011;16786;49.466;11.068;2023-12-20T00:41:33;15.93;;;5.90;;
29916;SDS011;16786;49.466;11.068;2023-12-20T00:44:00;9.82;;;5.65;;
29916;SDS011;16786;49.466;11.068;2023-12-20T00:46:27;9.55;;;5.95;;
29916;SDS011;16786;49.466;11.068;2023-12-20T00:48:54;9.90;;;5.07;;
29916;SDS011;16786;49.466;11.068;2023-12-20T00:51:22;11.80;;;5.80;;
29916;SDS011;16786;49.466;11.068;2023-12-20T00:53:49;11.52;;;5.97;;
29916;SDS011;16786;49.466;11.068;2023-12-20T00:56:21;9.65;;;5.88;;
29916;SDS011;16786;49.466;11.068;2023-12-20T00:58:48;9.73;;;5.30;;
29916;SDS011;16786;49.466;11.068;2023-12-20T01:01:15;9.73;;;5.20;;
29916;SDS011;16786;49.466;11.068;2023-12-20T01:03:42;11.10;;;5.55;;
29916;SDS011;16786;49.466;11.068;2023-12-20T01:06:10;8.95;;;4.90;;
29916;SDS011;16786;49.466;11.068;2023-12-20T01:08:37;8.77;;;4.80;;
29916;SDS011;16786;49.466;11.068;2023-12-20T01:11:04;8.13;;;4.88;;
29916;SDS011;16786;49.466;11.068;2023-12-20T01:13:32;10.38;;;5.30;;
29916;SDS011;16786;49.466;11.068;2023-12-20T01:15:59;6.90;;;4.15;;
29916;SDS011;16786;49.466;11.068;2023-12-20T01:18:26;7.15;;;4.00;;
29916;SDS011;16786;49.466;11.068;2023-12-20T01:20:53;8.10;;;4.60;;
29916;SDS011;16786;49.466;11.068;2023-12-20T01:23:20;5.88;;;3.58;;
29916;SDS011;16786;49.466;11.068;2023-12-20T01:25:48;8.43;;;3.65;;
29916;SDS011;16786;49.466;11.068;2023-12-20T01:28:15;7.00;;;3.13;;
29916;SDS011;16786;49.466;11.068;2023-12-20T01:30:42;5.45;;;3.15;;
29916;SDS011;16786;49.466;11.068;2023-12-20T01:33:10;5.05;;;2.88;;
29916;SDS011;16786;49.466;11.068;2023-12-20T01:35:37;6.85;;;2.78;;
29916;SDS011;16786;49.466;11.068;2023-12-20T01:38:04;6.95;;;3.60;;
29916;SDS011;16786;49.466;11.068;2023-12-20T01:40:31;4.88;;;2.53;;
29916;SDS011;16786;49.466;11.068;2023-12-20T01:43:02;7.28;;;2.75;;
29916;SDS011;16786;49.466;11.068;2023-12-20T01:45:33;5.80;;;2.63;;
29916;SDS011;16786;49.466;11.068;2023-12-20T01:48:00;6.75;;;3.78;;
29916;SDS011;16786;49.466;11.068;2023-12-20T01:50:29;5.13;;;2.35;;
29916;SDS011;16786;49.466;11.068;2023-12-20T01:52:58;4.18;;;2.38;;
29916;SDS011;16786;49.466;11.068;2023-12-20T01:55:28;3.92;;;2.30;;
29916;SDS011;16786;49.466;11.068;2023-12-20T01:57:58;5.25;;;2.53;;
29916;SDS011;16786;49.466;11.068;2023-12-20T02:00:29;4.43;;;2.55;;
29916;SDS011;16786;49.466;11.068;2023-12-20T02:02:57;3.50;;;2.00;;
29916;SDS011;16786;49.466;11.068;2023-12-20T02:05:31;3.60;;;2.23;;
29916;SDS011;16786;49.466;11.068;2023-12-20T02:07:59;4.47;;;2.10;;
29916;SDS011;16786;49.466;11.068;2023-12-20T02:10:26;4.28;;;1.90;;
29916;SDS011;16786;49.466;11.068;2023-12-20T02:12:54;3.45;;;2.13;;
29916;SDS011;16786;49.466;11.068;2023-12-20T02:15:21;5.35;;;2.45;;
29916;SDS011;16786;49.466;11.068;2023-12-20T02:17:48;3.17;;;1.90;;
29916;SDS011;16786;49.466;11.068;2023-12-20T02:20:17;3.75;;;1.92;;
29916;SDS011;16786;49.466;11.068;2023-12-20T02:22:44;4.38;;;1.70;;
29916;SDS011;16786;49.466;11.068;2023-12-20T02:25:11;3.20;;;1.50;;
29916;SDS011;16786;49.466;11.068;2023-12-20T02:27:39;3.17;;;1.67;;
29916;SDS011;16786;49.466;11.068;2023-12-20T02:30:06;2.72;;;1.50;;
29916;SDS011;16786;49.466;11.068;2023-12-20T02:32:34;3.03;;;1.40;;
29916;SDS011;16786;49.466;11.068;2023-12-20T02:35:01;4.47;;;1.67;;
29916;SDS011;16786;49.466;11.068;2023-12-20T02:37:28;3.65;;;1.70;;
29916;SDS011;16786;49.466;11.068;2023-12-20T02:39:55;3.00;;;1.67;;
29916;SDS011;16786;49.466;11.068;2023-12-20T02:42:22;3.92;;;1.50;;
29916;SDS011;16786;49.466;11.068;2023-12-20T02:44:49;2.17;;;1.30;;
29916;SDS011;16786;49.466;11.068;2023-12-20T02:47:16;2.42;;;1.38;;
29916;SDS011;16786;49.466;11.068;2023-12-20T02:49:43;3.30;;;1.27;;
29916;SDS011;16786;49.466;11.068;2023-12-20T02:52:11;2.58;;;1.38;;
29916;SDS011;16786;49.466;11.068;2023-12-20T02:54:38;2.88;;;1.40;;
29916;SDS011;16786;49.466;11.068;2023-12-20T02:57:05;3.40;;;1.40;;
29916;SDS011;16786;49.466;11.068;2023-12-20T02:59:33;3.60;;;1.20;;
29916;SDS011;16786;49.466;11.068;2023-12-20T03:02:00;2.28;;;1.40;;
29916;SDS011;16786;49.466;11.068;2023-12-20T03:04:27;2.55;;;1.33;;
29916;SDS011;16786;49.466;11.068;2023-12-20T03:06:54;1.52;;;1.10;;
29916;SDS011;16786;49.466;11.068;2023-12-20T03:09:21;2.35;;;1.33;;
29916;SDS011;16786;49.466;11.068;2023-12-20T03:11:48;2.13;;;1.25;;
29916;SDS011;16786;49.466;11.068;2023-12-20T03:14:15;1.95;;;1.25;;
29916;SDS011;16786;49.466;11.068;2023-12-20T03:16:46;1.52;;;1.13;;
29916;SDS011;16786;49.466;11.068;2023-12-20T03:19:15;1.63;;;1.02;;
29916;SDS011;16786;49.466;11.068;2023-12-20T03:21:44;2.00;;;1.05;;
29916;SDS011;16786;49.466;11.068;2023-12-20T03:24:11;1.67;;;1.00;;
29916;SDS011;16786;49.466;11.068;2023-12-20T03:26:38;1.25;;;1.02;;
29916;SDS011;16786;49.466;11.068;2023-12-20T03:29:05;2.45;;;1.10;;
29916;SDS011;16786;49.466;11.068;2023-12-20T03:31:32;1.83;;;1.00;;
29916;SDS011;16786;49.466;11.068;2023-12-20T03:33:59;2.13;;;1.10;;
29916;SDS011;16786;49.466;11.068;2023-12-20T03:36:26;2.38;;;1.35;;
29916;SDS011;16786;49.466;11.068;2023-12-20T03:38:53;2.00;;;1.25;;
29916;SDS011;16786;49.466;11.068;2023-12-20T03:41:20;2.83;;;1.10;;
29916;SDS011;16786;49.466;11.068;2023-12-20T03:43:48;3.45;;;1.20;;
29916;SDS011;16786;49.466;11.068;2023-12-20T03:46:15;2.13;;;1.20;;
29916;SDS011;16786;49.466;11.068;2023-12-20T03:48:42;2.80;;;1.00;;
29916;SDS011;16786;49.466;11.068;2023-12-20T03:51:09;2.22;;;1.08;;
29916;SDS011;16786;49.466;11.068;2023-12-20T03:53:36;2.72;;;1.50;;
29916;SDS011;16786;49.466;11.068;2023-12-20T03:56:03;2.78;;;1.20;;
29916;SDS011;16786;49.466;11.068;2023-12-20T03:58:31;1.77;;;1.13;;
29916;SDS011;16786;49.466;11.068;2023-12-20T04:00:58;2.58;;;1.40;;
29916;SDS011;16786;49.466;11.068;2023-12-20T04:03:25;2.20;;;1.23;;
29916;SDS011;16786;49.466;11.068;2023-12-20T04:05:52;2.90;;;1.30;;
29916;SDS011;16786;49.466;11.068;2023-12-20T04:08:19;2.50;;;1.40;;
29916;SDS011;16786;49.466;11.068;2023-12-20T04:10:46;3.63;;;1.58;;
29916;SDS011;16786;49.466;11.068;2023-12-20T04:13:14;2.58;;;1.67;;
29916;SDS011;16786;49.466;11.068;2023-12-20T04:15:41;1.73;;;1.10;;
29916;SDS011;16786;49.466;11.068;2023-12-20T04:18:08;2.40;;;1.30;;
29916;SDS011;16786;49.466;11.068;2023-12-20T04:20:35;2.25;;;1.45;;
29916;SDS011;16786;49.466;11.068;2023-12-20T04:23:02;3.60;;;1.40;;
29916;SDS011;16786;49.466;11.068;2023-12-20T04:25:29;1.90;;;1.27;;
29916;SDS011;16786;49.466;11.068;2023-12-20T04:27:56;2.88;;;1.40;;
29916;SDS011;16786;49.466;11.068;2023-12-20T04:30:24;2.25;;;1.30;;
29916;SDS011;16786;49.466;11.068;2023-12-20T04:32:51;2.35;;;1.27;;
29916;SDS011;16786;49.466;11.068;2023-12-20T04:35:18;2.25;;;1.25;;
29916;SDS011;16786;49.466;11.068;2023-12-20T04:37:45;2.50;;;1.50;;
29916;SDS011;16786;49.466;11.068;2023-12-20T04:40:12;2.45;;;1.35;;
29916;SDS011;16786;49.466;11.068;2023-12-20T04:42:40;2.03;;;1.20;;
29916;SDS011;16786;49.466;11.068;2023-12-20T04:45:07;3.03;;;1.73;;
29916;SDS011;16786;49.466;11.068;2023-12-20T04:47:34;2.72;;;1.30;;
29916;SDS011;16786;49.466;11.068;2023-12-20T04:50:01;2.55;;;1.42;;
29916;SDS011;16786;49.466;11.068;2023-12-20T04:52:29;3.78;;;1.45;;
29916;SDS011;16786;49.466;11.068;2023-12-20T04:54:56;2.47;;;1.40;;
29916;SDS011;16786;49.466;11.068;2023-12-20T04:57:23;2.42;;;1.38;;
29916;SDS011;16786;49.466;11.068;2023-12-20T04:59:50;3.78;;;1.55;;
29916;SDS011;16786;49.466;11.068;2023-12-20T05:02:17;2.75;;;1.45;;
29916;SDS011;16786;49.466;11.068;2023-12-20T05:04:44;2.13;;;1.40;;
29916;SDS011;16786;49.466;11.068;2023-12-20T05:07:12;3.03;;;1.58;;
29916;SDS011;16786;49.466;11.068;2023-12-20T05:09:39;3.75;;;1.45;;
29916;SDS011;16786;49.466;11.068;2023-12-20T05:12:06;2.60;;;1.48;;
29916;SDS011;16786;49.466;11.068;2023-12-20T05:14:34;2.25;;;1.25;;
29916;SDS011;16786;49.466;11.068;2023-12-20T05:17:01;3.25;;;1.50;;
29916;SDS011;16786;49.466;11.068;2023-12-20T05:19:29;2.42;;;1.48;;
29916;SDS011;16786;49.466;11.068;2023-12-20T05:21:57;2.63;;;1.48;;
29916;SDS011;16786;49.466;11.068;2023-12-20T05:24:24;3.20;;;1.63;;
29916;SDS011;16786;49.466;11.068;2023-12-20T05:26:51;2.83;;;1.25;;
29916;SDS011;16786;49.466;11.068;2023-12-20T05:29:20;2.13;;;1.45;;
29916;SDS011;16786;49.466;11.068;2023-12-20T05:31:47;3.05;;;1.50;;
29916;SDS011;16786;49.466;11.068;2023-12-20T05:34:14;2.53;;;1.45;;
29916;SDS011;16786;49.466;11.068;2023-12-20T05:36:41;3.10;;;1.50;;
29916;SDS011;16786;49.466;11.068;2023-12-20T05:39:08;3.25;;;1.85;;
29916;SDS011;16786;49.466;11.068;2023-12-20T05:41:35;2.70;;;1.60;;
29916;SDS011;16786;49.466;11.068;2023-12-20T05:44:03;3.30;;;1.60;;
29916;SDS011;16786;49.466;11.068;2023-12-20T05:46:30;2.20;;;1.30;;
29916;SDS011;16786;49.466;11.068;2023-12-20T05:48:57;2.83;;;1.60;;
29916;SDS011;16786;49.466;11.068;2023-12-20T05:51:24;2.38;;;1.40;;
29916;SDS011;16786;49.466;11.068;2023-12-20T05:53:51;2.88;;;1.52;;
29916;SDS011;16786;49.466;11.068;2023-12-20T05:56:18;2.47;;;1.50;;
29916;SDS011;16786;49.466;11.068;2023-12-20T05:58:45;2.38;;;1.55;;
29916;SDS011;16786;49.466;11.068;2023-12-20T06:01:14;3.28;;;1.52;;
29916;SDS011;16786;49.466;11.068;2023-12-20T06:03:41;3.42;;;1.88;;
29916;SDS011;16786;49.466;11.068;2023-12-20T06:06:09;3.78;;;2.03;;
29916;SDS011;16786;49.466;11.068;2023-12-20T06:08:42;4.22;;;2.13;;
29916;SDS011;16786;49.466;11.068;2023-12-20T06:11:10;7.18;;;2.85;;
29916;SDS011;16786;49.466;11.068;2023-12-20T06:13:37;5.72;;;2.10;;
29916;SDS011;16786;49.466;11.068;2023-12-20T06:16:05;7.47;;;2.35;;
29916;SDS011;16786;49.466;11.068;2023-12-20T06:18:34;6.18;;;2.28;;
29916;SDS011;16786;49.466;11.068;2023-12-20T06:21:03;3.85;;;2.33;;
29916;SDS011;16786;49.466;11.068;2023-12-20T06:23:31;6.13;;;2.50;;
29916;SDS011;16786;49.466;11.068;2023-12-20T06:25:58;4.57;;;2.17;;
29916;SDS011;16786;49.466;11.068;2023-12-20T06:28:25;4.35;;;2.33;;
29916;SDS011;16786;49.466;11.068;2023-12-20T06:30:52;5.28;;;2.53;;
29916;SDS011;16786;49.466;11.068;2023-12-20T06:33:21;5.10;;;2.70;;
29916;SDS011;16786;49.466;11.068;2023-12-20T06:35:49;7.82;;;3.33;;
29916;SDS011;16786;49.466;11.068;2023-12-20T06:38:17;7.82;;;3.55;;
29916;SDS011;16786;49.466;11.068;2023-12-20T06:40:45;7.88;;;3.80;;
29916;SDS011;16786;49.466;11.068;2023-12-20T06:43:12;7.63;;;3.80;;
29916;SDS011;16786;49.466;11.068;2023-12-20T06:45:58;7.70;;;4.15;;
29916;SDS011;16786;49.466;11.068;2023-12-20T06:48:27;10.23;;;3.70;;
29916;SDS011;16786;49.466;11.068;2023-12-20T06:50:54;8.98;;;4.05;;
29916;SDS011;16786;49.466;11.068;2023-12-20T06:53:21;11.63;;;4.30;;
29916;SDS011;16786;49.466;11.068;2023-12-20T06:55:48;7.68;;;3.78;;
29916;SDS011;16786;49.466;11.068;2023-12-20T06:58:15;11.93;;;3.60;;
29916;SDS011;16786;49.466;11.068;2023-12-20T07:00:43;10.52;;;4.18;;
29916;SDS011;16786;49.466;11.068;2023-12-20T07:03:10;9.45;;;4.15;;
29916;SDS011;16786;49.466;11.068;2023-12-20T07:05:37;8.32;;;3.25;;
29916;SDS011;16786;49.466;11.068;2023-12-20T07:08:05;9.10;;;4.05;;
29916;SDS011;16786;49.466;11.068;2023-12-20T07:10:32;8.60;;;3.35;;
29916;SDS011;16786;49.466;11.068;2023-12-20T07:13:00;7.10;;;4.32;;
29916;SDS011;16786;49.466;11.068;2023-12-20T07:15:27;8.38;;;4.40;;
29916;SDS011;16786;49.466;11.068;2023-12-20T07:17:57;8.10;;;3.97;;
29916;SDS011;16786;49.466;11.068;2023-12-20T07:20:26;9.43;;;4.50;;
29916;SDS011;16786;49.466;11.068;2023-12-20T07:22:54;6.78;;;4.30;;
29916;SDS011;16786;49.466;11.068;2023-12-20T07:25:21;6.20;;;3.85;;
29916;SDS011;16786;49.466;11.068;2023-12-20T07:27:49;9.55;;;4.57;;
29916;SDS011;16786;49.466;11.068;2023-12-20T07:30:16;7.10;;;4.53;;
29916;SDS011;16786;49.466;11.068;2023-12-20T07:32:43;7.55;;;4.22;;
29916;SDS011;16786;49.466;11.068;2023-12-20T07:35:11;8.73;;;4.60;;
29916;SDS011;16786;49.466;11.068;2023-12-20T07:37:38;8.55;;;4.88;;
29916;SDS011;16786;49.466;11.068;2023-12-20T07:40:06;9.80;;;4.95;;
29916;SDS011;16786;49.466;11.068;2023-12-20T07:42:34;6.95;;;4.47;;
29916;SDS011;16786;49.466;11.068;2023-12-20T07:45:02;7.95;;;5.10;;
29916;SDS011;16786;49.466;11.068;2023-12-20T07:47:30;9.38;;;4.82;;
29916;SDS011;16786;49.466;11.068;2023-12-20T07:49:57;6.70;;;4.25;;
29916;SDS011;16786;49.466;11.068;2023-12-20T07:52:25;6.88;;;4.47;;
29916;SDS011;16786;49.466;11.068;2023-12-20T07:54:53;8.05;;;4.43;;
29916;SDS011;16786;49.466;11.068;2023-12-20T07:57:20;7.28;;;4.47;;
29916;SDS011;16786;49.466;11.068;2023-12-20T07:59:47;7.78;;;4.43;;
29916;SDS011;16786;49.466;11.068;2023-12-20T08:02:14;6.70;;;4.45;;
29916;SDS011;16786;49.466;11.068;2023-12-20T08:04:41;6.80;;;4.55;;
29916;SDS011;16786;49.466;11.068;2023-12-20T08:07:08;6.75;;;4.47;;
29916;SDS011;16786;49.466;11.068;2023-12-20T08:09:35;9.82;;;5.60;;
29916;SDS011;16786;49.466;11.068;2023-12-20T08:12:04;7.25;;;4.53;;
29916;SDS011;16786;49.466;11.068;2023-12-20T08:14:32;8.65;;;4.88;;
29916;SDS011;16786;49.466;11.068;2023-12-20T08:16:59;9.40;;;4.50;;
29916;SDS011;16786;49.466;11.068;2023-12-20T08:19:26;6.47;;;4.30;;
29916;SDS011;16786;49.466;11.068;2023-12-20T08:21:54;7.82;;;4.85;;
29916;SDS011;16786;49.466;11.068;2023-12-20T08:24:21;6.72;;;4.50;;
29916;SDS011;16786;49.466;11.068;2023-12-20T08:26:48;6.05;;;4.38;;
29916;SDS011;16786;49.466;11.068;2023-12-20T08:29:15;6.05;;;3.97;;
29916;SDS011;16786;49.466;11.068;2023-12-20T08:31:42;6.75;;;3.70;;
29916;SDS011;16786;49.466;11.068;2023-12-20T08:34:09;6.28;;;3.88;;
29916;SDS011;16786;49.466;11.068;2023-12-20T08:36:39;6.78;;;3.83;;
29916;SDS011;16786;49.466;11.068;2023-12-20T08:39:05;6.43;;;4.28;;
29916;SDS011;16786;49.466;11.068;2023-12-20T08:41:34;5.90;;;3.67;;
29916;SDS011;16786;49.466;11.068;2023-12-20T08:44:01;5.85;;;3.13;;
29916;SDS011;16786;49.466;11.068;2023-12-20T08:46:29;5.70;;;3.60;;
29916;SDS011;16786;49.466;11.068;2023-12-20T08:48:56;4.90;;;3.25;;
29916;SDS011;16786;49.466;11.068;2023-12-20T08:51:23;5.00;;;3.20;;
29916;SDS011;16786;49.466;11.068;2023-12-20T08:53:52;6.00;;;3.08;;
29916;SDS011;16786;49.466;11.068;2023-12-20T08:56:19;5.68;;;3.22;;
29916;SDS011;16786;49.466;11.068;2023-12-20T08:58:46;5.10;;;2.88;;
29916;SDS011;16786;49.466;11.068;2023-12-20T09:01:14;6.25;;;3.38;;
29916;SDS011;16786;49.466;11.068;2023-12-20T09:03:42;4.90;;;2.63;;
29916;SDS011;16786;49.466;11.068;2023-12-20T09:06:10;7.63;;;3.42;;
29916;SDS011;16786;49.466;11.068;2023-12-20T09:08:37;7.05;;;3.70;;
29916;SDS011;16786;49.466;11.068;2023-12-20T09:11:04;6.22;;;3.72;;
29916;SDS011;16786;49.466;11.068;2023-12-20T09:13:31;5.03;;;2.90;;
29916;SDS011;16786;49.466;11.068;2023-12-20T09:15:59;6.13;;;3.30;;
29916;SDS011;16786;49.466;11.068;2023-12-20T09:18:26;4.65;;;3.10;;
29916;SDS011;16786;49.466;11.068;2023-12-20T09:20:54;7.15;;;3.15;;
29916;SDS011;16786;49.466;11.068;2023-12-20T09:23:21;4.53;;;2.92;;
29916;SDS011;16786;49.466;11.068;2023-12-20T09:25:48;5.78;;;2.90;;
29916;SDS011;16786;49.466;11.068;2023-12-20T09:28:15;5.85;;;2.83;;
29916;SDS011;16786;49.466;11.068;2023-12-20T09:30:43;5.72;;;2.92;;
29916;SDS011;16786;49.466;11.068;2023-12-20T09:33:12;6.70;;;2.92;;
29916;SDS011;16786;49.466;11.068;2023-12-20T09:35:41;8.20;;;2.97;;
29916;SDS011;16786;49.466;11.068;2023-12-20T09:38:08;5.05;;;3.00;;
29916;SDS011;16786;49.466;11.068;2023-12-20T09:40:35;5.60;;;2.83;;
29916;SDS011;16786;49.466;11.068;2023-12-20T09:43:10;6.72;;;2.72;;
29916;SDS011;16786;49.466;11.068;2023-12-20T09:45:40;7.65;;;2.60;;
29916;SDS011;16786;49.466;11.068;2023-12-20T09:48:08;4.93;;;2.20;;
29916;SDS011;16786;49.466;11.068;2023-12-20T09:50:38;5.57;;;2.45;;
29916;SDS011;16786;49.466;11.068;2023-12-20T09:53:07;6.57;;;2.38;;
29916;SDS011;16786;49.466;11.068;2023-12-20T09:55:36;4.10;;;2.03;;
29916;SDS011;16786;49.466;11.068;2023-12-20T09:58:05;4.45;;;2.20;;
29916;SDS011;16786;49.466;11.068;2023-12-20T10:00:34;10.10;;;2.65;;
29916;SDS011;16786;49.466;11.068;2023-12-20T10:03:01;5.35;;;2.20;;
29916;SDS011;16786;49.466;11.068;2023-12-20T10:07:57;7.25;;;2.08;;
29916;SDS011;16786;49.466;11.068;2023-12-20T10:10:26;5.10;;;2.08;;
29916;SDS011;16786;49.466;11.068;2023-12-20T10:13:09;5.28;;;2.22;;
29916;SDS011;16786;49.466;11.068;2023-12-20T10:15:37;5.28;;;2.20;;
29916;SDS011;16786;49.466;11.068;2023-12-20T10:18:05;7.55;;;2.50;;
29916;SDS011;16786;49.466;11.068;2023-12-20T10:20:33;5.72;;;2.20;;
29916;SDS011;16786;49.466;11.068;2023-12-20T10:23:01;6.75;;;2.63;;
29916;SDS011;16786;49.466;11.068;2023-12-20T10:25:29;3.63;;;2.00;;
29916;SDS011;16786;49.466;11.068;2023-12-20T10:28:08;6.10;;;2.10;;
29916;SDS011;16786;49.466;11.068;2023-12-20T10:30:40;8.60;;;2.17;;
29916;SDS011;16786;49.466;11.068;2023-12-20T10:33:09;6.60;;;2.15;;
29916;SDS011;16786;49.466;11.068;2023-12-20T10:35:39;8.60;;;2.53;;
29916;SDS011;16786;49.466;11.068;2023-12-20T10:38:10;7.70;;;2.60;;
29916;SDS011;16786;49.466;11.068;2023-12-20T10:40:40;5.93;;;2.40;;
29916;SDS011;16786;49.466;11.068;2023-12-20T10:43:07;6.85;;;2.22;;
29916;SDS011;16786;49.466;11.068;2023-12-20T10:45:35;5.38;;;2.30;;
29916;SDS011;16786;49.466;11.068;2023-12-20T10:48:03;6.22;;;2.20;;
29916;SDS011;16786;49.466;11.068;2023-12-20T10:50:31;7.78;;;2.20;;
29916;SDS011;16786;49.466;11.068;2023-12-20T10:52:59;5.57;;;2.38;;
29916;SDS011;16786;49.466;11.068;2023-12-20T10:55:27;5.68;;;2.42;;
29916;SDS011;16786;49.466;11.068;2023-12-20T10:58:07;7.40;;;2.35;;
29916;SDS011;16786;49.466;11.068;2023-12-20T11:00:37;7.18;;;2.35;;
29916;SDS011;16786;49.466;11.068;2023-12-20T11:03:08;6.28;;;2.17;;
29916;SDS011;16786;49.466;11.068;2023-12-20T11:08:32;6.63;;;2.38;;
29916;SDS011;16786;49.466;11.068;2023-12-20T11:11:11;7.15;;;2.53;;
29916;SDS011;16786;49.466;11.068;2023-12-20T11:14:04;7.68;;;2.25;;
29916;SDS011;16786;49.466;11.068;2023-12-20T11:16:32;11.13;;;2.45;;
29916;SDS011;16786;49.466;11.068;2023-12-20T11:19:14;9.13;;;2.58;;
29916;SDS011;16786;49.466;11.068;2023-12-20T11:21:41;6.68;;;2.45;;
29916;SDS011;16786;49.466;11.068;2023-12-20T11:24:09;7.38;;;2.97;;
29916;SDS011;16786;49.466;11.068;2023-12-20T11:26:36;9.73;;;2.45;;
29916;SDS011;16786;49.466;11.068;2023-12-20T11:31:56;5.15;;;1.90;;
29916;SDS011;16786;49.466;11.068;2023-12-20T11:34:26;8.13;;;2.33;;
29916;SDS011;16786;49.466;11.068;2023-12-20T11:36:58;6.75;;;2.33;;
29916;SDS011;16786;49.466;11.068;2023-12-20T11:39:27;7.63;;;2.38;;
29916;SDS011;16786;49.466;11.068;2023-12-20T11:41:55;6.00;;;2.10;;
29916;SDS011;16786;49.466;11.068;2023-12-20T11:44:25;4.82;;;2.10;;
29916;SDS011;16786;49.466;11.068;2023-12-20T11:46:54;9.68;;;2.10;;
29916;SDS011;16786;49.466;11.068;2023-12-20T11:49:24;4.93;;;2.03;;
29916;SDS011;16786;49.466;11.068;2023-12-20T11:51:52;4.82;;;1.95;;
29916;SDS011;16786;49.466;11.068;2023-12-20T11:54:20;7.90;;;2.20;;
29916;SDS011;16786;49.466;11.068;2023-12-20T11:56:48;10.05;;;2.22;;
29916;SDS011;16786;49.466;11.068;2023-12-20T11:59:15;10.68;;;2.50;;
29916;SDS011;16786;49.466;11.068;2023-12-20T12:01:49;6.50;;;2.13;;
29916;SDS011;16786;49.466;11.068;2023-12-20T12:04:18;6.75;;;2.40;;
29916;SDS011;16786;49.466;11.068;2023-12-20T12:06:46;7.05;;;2.60;;
29916;SDS011;16786;49.466;11.068;2023-12-20T12:09:13;7.47;;;2.35;;
29916;SDS011;16786;49.466;11.068;2023-12-20T12:11:41;7.13;;;2.50;;
29916;SDS011;16786;49.466;11.068;2023-12-20T12:14:09;7.00;;;2.70;;
29916;SDS011;16786;49.466;11.068;2023-12-20T12:16:37;11.50;;;2.50;;
29916;SDS011;16786;49.466;11.068;2023-12-20T12:19:05;6.85;;;2.60;;
29916;SDS011;16786;49.466;11.068;2023-12-20T12:21:32;6.60;;;2.40;;
29916;SDS011;16786;49.466;11.068;2023-12-20T12:24:07;6.55;;;2.67;;
29916;SDS011;16786;49.466;11.068;2023-12-20T12:26:34;7.20;;;2.70;;
29916;SDS011;16786;49.466;11.068;2023-12-20T12:29:01;6.05;;;2.70;;
29916;SDS011;16786;49.466;11.068;2023-12-20T12:31:29;8.45;;;3.00;;
29916;SDS011;16786;49.466;11.068;2023-12-20T12:33:57;5.57;;;2.60;;
29916;SDS011;16786;49.466;11.068;2023-12-20T12:36:24;8.90;;;2.80;;
29916;SDS011;16786;49.466;11.068;2023-12-20T12:38:51;8.63;;;2.80;;
29916;SDS011;16786;49.466;11.068;2023-12-20T12:41:18;6.93;;;2.25;;
29916;SDS011;16786;49.466;11.068;2023-12-20T12:43:46;7.22;;;3.05;;
29916;SDS011;16786;49.466;11.068;2023-12-20T12:46:13;5.60;;;2.60;;
29916;SDS011;16786;49.466;11.068;2023-12-20T12:48:40;4.47;;;2.33;;
29916;SDS011;16786;49.466;11.068;2023-12-20T12:51:11;5.95;;;2.50;;
29916;SDS011;16786;49.466;11.068;2023-12-20T12:53:40;8.73;;;2.80;;
29916;SDS011;16786;49.466;11.068;2023-12-20T12:56:07;5.22;;;2.35;;
29916;SDS011;16786;49.466;11.068;2023-12-20T12:58:35;6.32;;;2.55;;
29916;SDS011;16786;49.466;11.068;2023-12-20T13:01:02;8.20;;;2.50;;
29916;SDS011;16786;49.466;11.068;2023-12-20T13:03:30;7.05;;;3.28;;
29916;SDS011;16786;49.466;11.068;2023-12-20T13:05:57;7.72;;;2.75;;
29916;SDS011;16786;49.466;11.068;2023-12-20T13:08:25;6.75;;;2.45;;
29916;SDS011;16786;49.466;11.068;2023-12-20T13:10:52;5.45;;;2.60;;
29916;SDS011;16786;49.466;11.068;2023-12-20T13:13:20;9.25;;;3.10;;
29916;SDS011;16786;49.466;11.068;2023-12-20T13:15:47;3.88;;;2.30;;
29916;SDS011;16786;49.466;11.068;2023-12-20T13:18:19;5.57;;;2.40;;
29916;SDS011;16786;49.466;11.068;2023-12-20T13:20:47;5.97;;;2.38;;
29916;SDS011;16786;49.466;11.068;2023-12-20T13:23:14;3.15;;;1.90;;
29916;SDS011;16786;49.466;11.068;2023-12-20T13:25:42;3.67;;;2.03;;
29916;SDS011;16786;49.466;11.068;2023-12-20T13:28:10;5.72;;;2.50;;
29916;SDS011;16786;49.466;11.068;2023-12-20T13:30:38;4.15;;;2.28;;
29916;SDS011;16786;49.466;11.068;2023-12-20T13:33:05;5.03;;;2.42;;
29916;SDS011;16786;49.466;11.068;2023-12-20T13:35:33;5.60;;;2.20;;
29916;SDS011;16786;49.466;11.068;2023-12-20T13:38:02;8.38;;;2.83;;
29916;SDS011;16786;49.466;11.068;2023-12-20T13:40:29;9.70;;;2.45;;
29916;SDS011;16786;49.466;11.068;2023-12-20T13:42:57;7.85;;;2.53;;
29916;SDS011;16786;49.466;11.068;2023-12-20T13:45:24;5.75;;;2.30;;
29916;SDS011;16786;49.466;11.068;2023-12-20T13:47:51;5.97;;;2.40;;
29916;SDS011;16786;49.466;11.068;2023-12-20T13:50:19;6.55;;;2.20;;
29916;SDS011;16786;49.466;11.068;2023-12-20T13:52:46;8.27;;;2.20;;
29916;SDS011;16786;49.466;11.068;2023-12-20T13:55:13;5.72;;;2.13;;
29916;SDS011;16786;49.466;11.068;2023-12-20T13:57:40;6.47;;;2.38;;
29916;SDS011;16786;49.466;11.068;2023-12-20T14:00:21;5.88;;;2.65;;
29916;SDS011;16786;49.466;11.068;2023-12-20T14:02:48;6.00;;;2.30;;
29916;SDS011;16786;49.466;11.068;2023-12-20T14:05:16;7.93;;;2.40;;
29916;SDS011;16786;49.466;11.068;2023-12-20T14:07:45;4.20;;;2.20;;
29916;SDS011;16786;49.466;11.068;2023-12-20T14:10:13;6.82;;;2.42;;
29916;SDS011;16786;49.466;11.068;2023-12-20T14:12:40;4.70;;;2.38;;
29916;SDS011;16786;49.466;11.068;2023-12-20T14:15:07;4.25;;;2.05;;
29916;SDS011;16786;49.466;11.068;2023-12-20T14:17:37;8.80;;;3.40;;
29916;SDS011;16786;49.466;11.068;2023-12-20T14:20:09;5.25;;;2.38;;
29916;SDS011;16786;49.466;11.068;2023-12-20T14:22:36;10.43;;;2.45;;
29916;SDS011;16786;49.466;11.068;2023-12-20T14:25:05;7.43;;;2.35;;
29916;SDS011;16786;49.466;11.068;2023-12-20T14:27:33;8.27;;;2.63;;
29916;SDS011;16786;49.466;11.068;2023-12-20T14:30:00;10.75;;;3.13;;
29916;SDS011;16786;49.466;11.068;2023-12-20T14:32:27;8.73;;;2.53;;
29916;SDS011;16786;49.466;11.068;2023-12-20T14:34:54;7.43;;;3.20;;
29916;SDS011;16786;49.466;11.068;2023-12-20T14:37:22;6.15;;;2.45;;
29916;SDS011;16786;49.466;11.068;2023-12-20T14:39:49;7.55;;;2.30;;
29916;SDS011;16786;49.466;11.068;2023-12-20T14:42:16;7.85;;;2.60;;
29916;SDS011;16786;49.466;11.068;2023-12-20T14:44:43;6.50;;;2.75;;
29916;SDS011;16786;49.466;11.068;2023-12-20T14:47:10;4.82;;;2.55;;